sensor_id;sensor_type;location;lat;lon;timestamp;pressure;altitude;pressure_sealevel;temperature;humidity
17764;BME280;22245;52.832;13.816;2023-02-25T00:01:08;99114.44;;;4.08;83.12
17764;BME280;22245;52.832;13.816;2023-02-25T00:04:32;99115.53;;;4.05;84.20
17764;BME280;22245;52.832;13.816;2023-02-25T00:07:54;99110.78;;;3.99;84.41
17764;BME280;22245;52.832;13.816;2023-02-25T00:11:17;99109.63;;;3.91;84.90
17764;BME280;22245;52.832;13.816;2023-02-25T00:14:40;99106.16;;;3.91;85.43
17764;BME280;22245;52.832;13.816;2023-02-25T00:18:01;99102.44;;;3.94;84.96
17764;BME280;22245;52.832;13.816;2023-02-25T00:21:25;99100.25;;;3.99;86.02
17764;BME280;22245;52.832;13.816;2023-02-25T00:24:51;99114.00;;;4.02;85.40
17764;BME280;22245;52.832;13.816;2023-02-25T00:28:12;99103.72;;;3.99;85.75
17764;BME280;22245;52.832;13.816;2023-02-25T00:31:34;99105.13;;;4.03;85.18
17764;BME280;22245;52.832;13.816;2023-02-25T00:34:56;99094.88;;;4.00;85.65
17764;BME280;22245;52.832;13.816;2023-02-25T00:38:19;99095.56;;;4.02;85.33
17764;BME280;22245;52.832;13.816;2023-02-25T00:41:41;99090.41;;;4.01;85.15
17764;BME280;22245;52.832;13.816;2023-02-25T00:45:04;99093.31;;;3.98;84.73
17764;BME280;22245;52.832;13.816;2023-02-25T00:48:26;99093.31;;;3.98;84.78
17764;BME280;22245;52.832;13.816;2023-02-25T00:51:49;99087.34;;;3.96;84.97
17764;BME280;22245;52.832;13.816;2023-02-25T00:55:12;99086.38;;;3.97;84.73
17764;BME280;22245;52.832;13.816;2023-02-25T00:58:35;99074.28;;;3.94;85.07
17764;BME280;22245;52.832;13.816;2023-02-25T01:01:57;99076.09;;;3.94;84.60
17764;BME280;22245;52.832;13.816;2023-02-25T01:05:18;99069.03;;;3.94;85.12
17764;BME280;22245;52.832;13.816;2023-02-25T01:08:40;99068.91;;;3.96;84.95
17764;BME280;22245;52.832;13.816;2023-02-25T01:12:04;99067.94;;;3.97;84.23
17764;BME280;22245;52.832;13.816;2023-02-25T01:15:29;99065.56;;;3.94;84.15
17764;BME280;22245;52.832;13.816;2023-02-25T01:18:53;99060.41;;;3.92;84.96
17764;BME280;22245;52.832;13.816;2023-02-25T01:22:15;99066.66;;;3.91;84.84
17764;BME280;22245;52.832;13.816;2023-02-25T01:25:38;99059.00;;;3.88;84.87
17764;BME280;22245;52.832;13.816;2023-02-25T01:29:05;99058.19;;;3.87;84.74
17764;BME280;22245;52.832;13.816;2023-02-25T01:32:27;99057.59;;;3.84;85.02
17764;BME280;22245;52.832;13.816;2023-02-25T01:35:49;99055.22;;;3.81;85.42
17764;BME280;22245;52.832;13.816;2023-02-25T01:39:13;99052.97;;;3.76;85.49
17764;BME280;22245;52.832;13.816;2023-02-25T01:42:35;99050.94;;;3.80;85.30
17764;BME280;22245;52.832;13.816;2023-02-25T01:45:58;99052.75;;;3.79;85.39
17764;BME280;22245;52.832;13.816;2023-02-25T01:49:24;99054.06;;;3.73;85.10
17764;BME280;22245;52.832;13.816;2023-02-25T01:52:48;99053.38;;;3.71;85.33
17764;BME280;22245;52.832;13.816;2023-02-25T01:56:13;99059.66;;;3.59;85.80
17764;BME280;22245;52.832;13.816;2023-02-25T01:59:39;99062.88;;;3.62;85.56
17764;BME280;22245;52.832;13.816;2023-02-25T02:03:04;99062.63;;;3.66;85.71
17764;BME280;22245;52.832;13.816;2023-02-25T02:06:36;99055.69;;;3.65;85.68
17764;BME280;22245;52.832;13.816;2023-02-25T02:10:00;99057.88;;;3.59;85.45
17764;BME280;22245;52.832;13.816;2023-02-25T02:13:22;99060.75;;;3.56;86.32
17764;BME280;22245;52.832;13.816;2023-02-25T02:17:04;99060.16;;;3.53;85.83
17764;BME280;22245;52.832;13.816;2023-02-25T02:20:37;99066.53;;;3.50;85.64
17764;BME280;22245;52.832;13.816;2023-02-25T02:24:30;99057.41;;;3.54;85.78
17764;BME280;22245;52.832;13.816;2023-02-25T02:28:08;99071.28;;;3.56;86.00
17764;BME280;22245;52.832;13.816;2023-02-25T02:35:32;99067.50;;;3.49;86.33
17764;BME280;22245;52.832;13.816;2023-02-25T02:39:03;99065.94;;;3.46;86.44
17764;BME280;22245;52.832;13.816;2023-02-25T02:42:34;99072.50;;;3.52;86.06
17764;BME280;22245;52.832;13.816;2023-02-25T02:46:04;99079.69;;;3.50;85.83
17764;BME280;22245;52.832;13.816;2023-02-25T02:49:35;99077.31;;;3.47;85.63
17764;BME280;22245;52.832;13.816;2023-02-25T02:53:02;99075.75;;;3.44;86.41
17764;BME280;22245;52.832;13.816;2023-02-25T02:56:29;99092.16;;;3.48;86.83
17764;BME280;22245;52.832;13.816;2023-02-25T02:59:56;99088.97;;;3.33;86.60
17764;BME280;22245;52.832;13.816;2023-02-25T03:03:21;99097.44;;;3.37;86.24
17764;BME280;22245;52.832;13.816;2023-02-25T03:07:00;99101.03;;;3.36;85.65
17764;BME280;22245;52.832;13.816;2023-02-25T03:10:25;99105.56;;;3.33;85.57
17764;BME280;22245;52.832;13.816;2023-02-25T03:13:50;99111.09;;;3.30;85.65
17764;BME280;22245;52.832;13.816;2023-02-25T03:17:14;99115.03;;;3.36;85.54
17764;BME280;22245;52.832;13.816;2023-02-25T03:20:41;99123.09;;;3.23;85.48
17764;BME280;22245;52.832;13.816;2023-02-25T03:24:07;99122.56;;;3.29;85.46
17764;BME280;22245;52.832;13.816;2023-02-25T03:27:34;99123.78;;;3.25;85.90
17764;BME280;22245;52.832;13.816;2023-02-25T03:31:02;99138.16;;;3.21;85.48
17764;BME280;22245;52.832;13.816;2023-02-25T03:34:28;99137.81;;;3.14;85.89
17764;BME280;22245;52.832;13.816;2023-02-25T03:37:57;99150.13;;;3.14;86.32
17764;BME280;22245;52.832;13.816;2023-02-25T03:41:24;99155.50;;;3.12;85.76
17764;BME280;22245;52.832;13.816;2023-02-25T03:44:49;99159.69;;;3.15;86.21
17764;BME280;22245;52.832;13.816;2023-02-25T03:48:13;99149.75;;;3.18;86.10
17764;BME280;22245;52.832;13.816;2023-02-25T03:51:39;99155.88;;;3.19;86.48
17764;BME280;22245;52.832;13.816;2023-02-25T03:55:02;99156.69;;;3.19;86.53
17764;BME280;22245;52.832;13.816;2023-02-25T03:58:26;99163.16;;;3.27;86.05
17764;BME280;22245;52.832;13.816;2023-02-25T04:01:50;99162.75;;;3.31;86.14
17764;BME280;22245;52.832;13.816;2023-02-25T04:05:14;99166.09;;;3.33;85.72
17764;BME280;22245;52.832;13.816;2023-02-25T04:08:37;99171.97;;;3.37;85.21
17764;BME280;22245;52.832;13.816;2023-02-25T04:11:59;99179.72;;;3.39;85.38
17764;BME280;22245;52.832;13.816;2023-02-25T04:15:23;99188.81;;;3.35;84.96
17764;BME280;22245;52.832;13.816;2023-02-25T04:18:48;99190.16;;;3.29;84.90
17764;BME280;22245;52.832;13.816;2023-02-25T04:22:11;99197.34;;;3.27;85.94
17764;BME280;22245;52.832;13.816;2023-02-25T04:25:33;99208.84;;;3.26;86.37
17764;BME280;22245;52.832;13.816;2023-02-25T04:28:57;99204.66;;;3.23;86.63
17764;BME280;22245;52.832;13.816;2023-02-25T04:32:20;99210.63;;;3.25;86.16
17764;BME280;22245;52.832;13.816;2023-02-25T04:35:42;99225.59;;;3.25;86.12
17764;BME280;22245;52.832;13.816;2023-02-25T04:39:04;99220.66;;;3.20;85.84
17764;BME280;22245;52.832;13.816;2023-02-25T04:42:26;99216.63;;;3.16;87.12
17764;BME280;22245;52.832;13.816;2023-02-25T04:45:48;99218.28;;;3.17;86.60
17764;BME280;22245;52.832;13.816;2023-02-25T04:49:11;99228.66;;;3.18;86.40
17764;BME280;22245;52.832;13.816;2023-02-25T04:52:32;99233.69;;;3.22;86.32
17764;BME280;22245;52.832;13.816;2023-02-25T04:55:54;99245.41;;;3.17;86.35
17764;BME280;22245;52.832;13.816;2023-02-25T04:59:16;99246.03;;;3.21;85.56
17764;BME280;22245;52.832;13.816;2023-02-25T05:02:38;99249.72;;;3.18;85.37
17764;BME280;22245;52.832;13.816;2023-02-25T05:06:02;99261.59;;;3.13;85.08
17764;BME280;22245;52.832;13.816;2023-02-25T05:09:25;99266.47;;;2.95;85.13
17764;BME280;22245;52.832;13.816;2023-02-25T05:12:46;99274.72;;;2.90;84.39
17764;BME280;22245;52.832;13.816;2023-02-25T05:16:10;99273.28;;;2.86;84.82
17764;BME280;22245;52.832;13.816;2023-02-25T05:19:32;99271.13;;;2.91;84.92
17764;BME280;22245;52.832;13.816;2023-02-25T05:22:55;99277.09;;;2.93;84.98
17764;BME280;22245;52.832;13.816;2023-02-25T05:26:19;99273.75;;;2.91;85.51
17764;BME280;22245;52.832;13.816;2023-02-25T05:29:42;99276.38;;;2.91;85.21
17764;BME280;22245;52.832;13.816;2023-02-25T05:33:05;99288.34;;;2.84;85.98
17764;BME280;22245;52.832;13.816;2023-02-25T05:36:28;99284.50;;;2.88;85.76
17764;BME280;22245;52.832;13.816;2023-02-25T05:39:51;99291.09;;;2.94;85.58
17764;BME280;22245;52.832;13.816;2023-02-25T05:43:13;99302.09;;;2.87;85.55
17764;BME280;22245;52.832;13.816;2023-02-25T05:46:35;99306.97;;;2.81;85.66
17764;BME280;22245;52.832;13.816;2023-02-25T05:49:57;99308.28;;;2.75;85.40
17764;BME280;22245;52.832;13.816;2023-02-25T05:53:19;99318.44;;;2.80;85.67
17764;BME280;22245;52.832;13.816;2023-02-25T05:56:42;99324.63;;;2.67;85.36
17764;BME280;22245;52.832;13.816;2023-02-25T06:00:05;99334.69;;;2.73;85.96
17764;BME280;22245;52.832;13.816;2023-02-25T06:03:32;99334.94;;;2.70;85.22
17764;BME280;22245;52.832;13.816;2023-02-25T06:06:54;99334.78;;;2.72;85.29
17764;BME280;22245;52.832;13.816;2023-02-25T06:10:17;99351.06;;;2.77;84.74
17764;BME280;22245;52.832;13.816;2023-02-25T06:13:40;99349.25;;;2.66;85.30
17764;BME280;22245;52.832;13.816;2023-02-25T06:17:02;99364.78;;;2.69;84.86
17764;BME280;22245;52.832;13.816;2023-02-25T06:20:24;99370.06;;;2.69;85.50
17764;BME280;22245;52.832;13.816;2023-02-25T06:23:47;99380.56;;;2.69;85.41
17764;BME280;22245;52.832;13.816;2023-02-25T06:27:10;99387.50;;;2.70;85.42
17764;BME280;22245;52.832;13.816;2023-02-25T06:30:34;99393.00;;;2.67;85.25
17764;BME280;22245;52.832;13.816;2023-02-25T06:33:56;99400.50;;;2.72;85.75
17764;BME280;22245;52.832;13.816;2023-02-25T06:37:18;99407.88;;;2.55;85.79
17764;BME280;22245;52.832;13.816;2023-02-25T06:40:39;99415.75;;;2.55;86.25
17764;BME280;22245;52.832;13.816;2023-02-25T06:44:01;99416.81;;;2.53;86.58
17764;BME280;22245;52.832;13.816;2023-02-25T06:47:26;99424.81;;;2.51;86.26
17764;BME280;22245;52.832;13.816;2023-02-25T06:50:48;99426.88;;;2.59;86.04
17764;BME280;22245;52.832;13.816;2023-02-25T06:54:10;99426.75;;;2.60;85.62
17764;BME280;22245;52.832;13.816;2023-02-25T06:57:32;99438.69;;;2.53;86.23
17764;BME280;22245;52.832;13.816;2023-02-25T07:00:54;99441.69;;;2.60;86.49
17764;BME280;22245;52.832;13.816;2023-02-25T07:04:17;99458.59;;;2.69;85.81
17764;BME280;22245;52.832;13.816;2023-02-25T07:07:40;99461.25;;;2.56;85.40
17764;BME280;22245;52.832;13.816;2023-02-25T07:11:12;99464.50;;;2.59;85.66
17764;BME280;22245;52.832;13.816;2023-02-25T07:14:34;99460.94;;;2.60;85.02
17764;BME280;22245;52.832;13.816;2023-02-25T07:17:56;99477.66;;;2.59;85.59
17764;BME280;22245;52.832;13.816;2023-02-25T07:21:20;99483.91;;;2.45;85.46
17764;BME280;22245;52.832;13.816;2023-02-25T07:24:42;99500.34;;;2.36;85.99
17764;BME280;22245;52.832;13.816;2023-02-25T07:28:04;99504.75;;;2.36;86.65
17764;BME280;22245;52.832;13.816;2023-02-25T07:31:27;99516.84;;;2.38;86.68
17764;BME280;22245;52.832;13.816;2023-02-25T07:34:49;99505.16;;;2.42;86.26
17764;BME280;22245;52.832;13.816;2023-02-25T07:38:12;99533.63;;;2.36;85.26
17764;BME280;22245;52.832;13.816;2023-02-25T07:41:35;99534.16;;;2.41;85.67
17764;BME280;22245;52.832;13.816;2023-02-25T07:44:57;99528.38;;;2.36;85.77
17764;BME280;22245;52.832;13.816;2023-02-25T07:48:22;99551.22;;;2.35;86.22
17764;BME280;22245;52.832;13.816;2023-02-25T07:51:43;99562.31;;;2.39;85.80
17764;BME280;22245;52.832;13.816;2023-02-25T07:55:08;99563.91;;;2.41;85.78
17764;BME280;22245;52.832;13.816;2023-02-25T07:58:30;99587.56;;;2.28;85.40
17764;BME280;22245;52.832;13.816;2023-02-25T08:01:51;99575.47;;;2.26;85.82
17764;BME280;22245;52.832;13.816;2023-02-25T08:05:13;99580.34;;;2.32;85.85
17764;BME280;22245;52.832;13.816;2023-02-25T08:08:36;99584.63;;;2.33;85.89
17764;BME280;22245;52.832;13.816;2023-02-25T08:11:59;99594.81;;;2.38;86.08
17764;BME280;22245;52.832;13.816;2023-02-25T08:15:21;99596.91;;;2.45;85.96
17764;BME280;22245;52.832;13.816;2023-02-25T08:18:43;99603.75;;;2.48;84.25
17764;BME280;22245;52.832;13.816;2023-02-25T08:22:06;99604.25;;;2.53;84.68
17764;BME280;22245;52.832;13.816;2023-02-25T08:25:31;99607.19;;;2.49;83.23
17764;BME280;22245;52.832;13.816;2023-02-25T08:28:55;99613.63;;;2.44;83.79
17764;BME280;22245;52.832;13.816;2023-02-25T08:32:16;99614.38;;;2.34;84.21
17764;BME280;22245;52.832;13.816;2023-02-25T08:35:38;99632.31;;;2.27;84.05
17764;BME280;22245;52.832;13.816;2023-02-25T08:39:00;99633.69;;;2.20;85.57
17764;BME280;22245;52.832;13.816;2023-02-25T08:42:22;99649.38;;;2.21;86.07
17764;BME280;22245;52.832;13.816;2023-02-25T08:45:45;99642.44;;;2.20;85.15
17764;BME280;22245;52.832;13.816;2023-02-25T08:49:08;99660.31;;;2.28;84.60
17764;BME280;22245;52.832;13.816;2023-02-25T08:52:30;99641.91;;;2.28;84.52
17764;BME280;22245;52.832;13.816;2023-02-25T08:55:53;99667.13;;;2.30;84.67
17764;BME280;22245;52.832;13.816;2023-02-25T08:59:15;99667.56;;;2.37;84.66
17764;BME280;22245;52.832;13.816;2023-02-25T09:02:39;99665.44;;;2.42;84.77
17764;BME280;22245;52.832;13.816;2023-02-25T09:06:00;99691.00;;;2.40;84.40
17764;BME280;22245;52.832;13.816;2023-02-25T09:09:23;99685.00;;;2.51;84.00
17764;BME280;22245;52.832;13.816;2023-02-25T09:12:45;99696.34;;;2.52;84.02
17764;BME280;22245;52.832;13.816;2023-02-25T09:16:09;99706.75;;;2.40;83.42
17764;BME280;22245;52.832;13.816;2023-02-25T09:19:33;99704.88;;;2.42;83.83
17764;BME280;22245;52.832;13.816;2023-02-25T09:22:57;99716.00;;;2.46;83.67
17764;BME280;22245;52.832;13.816;2023-02-25T09:26:20;99709.28;;;2.55;84.01
17764;BME280;22245;52.832;13.816;2023-02-25T09:29:42;99723.59;;;2.51;83.33
17764;BME280;22245;52.832;13.816;2023-02-25T09:33:04;99734.50;;;2.44;83.95
17764;BME280;22245;52.832;13.816;2023-02-25T09:36:28;99732.50;;;2.35;83.81
17764;BME280;22245;52.832;13.816;2023-02-25T09:39:50;99752.38;;;2.39;82.30
17764;BME280;22245;52.832;13.816;2023-02-25T09:43:19;99751.84;;;2.34;82.65
17764;BME280;22245;52.832;13.816;2023-02-25T09:46:46;99769.19;;;2.37;82.41
17764;BME280;22245;52.832;13.816;2023-02-25T09:50:12;99767.94;;;2.42;82.00
17764;BME280;22245;52.832;13.816;2023-02-25T09:53:41;99779.28;;;2.43;80.75
17764;BME280;22245;52.832;13.816;2023-02-25T09:57:10;99770.03;;;2.37;80.91
17764;BME280;22245;52.832;13.816;2023-02-25T10:00:39;99777.59;;;2.42;81.37
17764;BME280;22245;52.832;13.816;2023-02-25T10:04:06;99786.25;;;2.57;81.01
17764;BME280;22245;52.832;13.816;2023-02-25T10:07:34;99799.59;;;2.54;81.47
17764;BME280;22245;52.832;13.816;2023-02-25T10:11:03;99798.44;;;2.58;81.24
17764;BME280;22245;52.832;13.816;2023-02-25T10:14:46;99809.56;;;2.49;80.60
17764;BME280;22245;52.832;13.816;2023-02-25T10:18:19;99817.28;;;2.65;81.03
17764;BME280;22245;52.832;13.816;2023-02-25T10:22:00;99825.63;;;2.71;80.81
17764;BME280;22245;52.832;13.816;2023-02-25T10:25:31;99828.97;;;2.73;79.31
17764;BME280;22245;52.832;13.816;2023-02-25T10:28:59;99839.34;;;2.62;79.02
17764;BME280;22245;52.832;13.816;2023-02-25T10:32:24;99857.75;;;2.62;78.77
17764;BME280;22245;52.832;13.816;2023-02-25T10:35:48;99851.88;;;2.58;78.04
17764;BME280;22245;52.832;13.816;2023-02-25T10:39:12;99850.59;;;2.64;79.50
17764;BME280;22245;52.832;13.816;2023-02-25T10:42:34;99860.28;;;2.64;79.27
17764;BME280;22245;52.832;13.816;2023-02-25T10:46:02;99868.59;;;2.57;80.06
17764;BME280;22245;52.832;13.816;2023-02-25T10:49:27;99871.84;;;2.61;80.39
17764;BME280;22245;52.832;13.816;2023-02-25T10:52:58;99881.50;;;2.48;82.69
17764;BME280;22245;52.832;13.816;2023-02-25T10:56:20;99886.53;;;2.51;82.36
17764;BME280;22245;52.832;13.816;2023-02-25T10:59:43;99894.44;;;2.51;83.14
17764;BME280;22245;52.832;13.816;2023-02-25T11:03:20;99888.56;;;2.60;82.93
17764;BME280;22245;52.832;13.816;2023-02-25T11:06:44;99903.25;;;2.50;82.42
17764;BME280;22245;52.832;13.816;2023-02-25T11:10:14;99924.97;;;2.39;79.04
17764;BME280;22245;52.832;13.816;2023-02-25T11:13:36;99917.81;;;2.41;79.34
17764;BME280;22245;52.832;13.816;2023-02-25T11:17:01;99923.94;;;2.41;79.74
17764;BME280;22245;52.832;13.816;2023-02-25T11:20:29;99927.78;;;2.50;79.44
17764;BME280;22245;52.832;13.816;2023-02-25T11:23:52;99936.81;;;2.59;78.37
17764;BME280;22245;52.832;13.816;2023-02-25T11:27:27;99949.03;;;2.60;76.73
17764;BME280;22245;52.832;13.816;2023-02-25T11:30:50;99935.34;;;2.55;74.41
17764;BME280;22245;52.832;13.816;2023-02-25T11:34:15;99937.03;;;2.56;75.11
17764;BME280;22245;52.832;13.816;2023-02-25T11:37:42;99960.28;;;2.62;76.51
17764;BME280;22245;52.832;13.816;2023-02-25T11:41:15;99960.66;;;2.70;77.01
17764;BME280;22245;52.832;13.816;2023-02-25T11:44:42;99965.16;;;2.68;77.43
17764;BME280;22245;52.832;13.816;2023-02-25T11:48:16;99980.38;;;2.63;78.45
17764;BME280;22245;52.832;13.816;2023-02-25T11:51:44;99975.22;;;2.62;77.76
17764;BME280;22245;52.832;13.816;2023-02-25T11:55:18;99984.34;;;2.56;77.91
17764;BME280;22245;52.832;13.816;2023-02-25T11:58:49;99975.81;;;2.52;78.09
17764;BME280;22245;52.832;13.816;2023-02-25T12:02:25;99986.63;;;2.48;77.46
17764;BME280;22245;52.832;13.816;2023-02-25T12:05:57;100002.75;;;2.56;78.71
17764;BME280;22245;52.832;13.816;2023-02-25T12:13:44;100004.97;;;2.20;81.03
17764;BME280;22245;52.832;13.816;2023-02-25T12:25:30;100025.13;;;2.20;79.77
17764;BME280;22245;52.832;13.816;2023-02-25T12:29:15;100031.06;;;2.23;79.08
17764;BME280;22245;52.832;13.816;2023-02-25T12:32:49;100041.75;;;2.20;79.41
17764;BME280;22245;52.832;13.816;2023-02-25T12:36:40;100033.59;;;2.10;79.09
17764;BME280;22245;52.832;13.816;2023-02-25T12:40:18;100046.34;;;2.16;77.83
17764;BME280;22245;52.832;13.816;2023-02-25T12:43:51;100049.47;;;2.09;77.36
17764;BME280;22245;52.832;13.816;2023-02-25T12:47:23;100053.00;;;2.08;78.29
17764;BME280;22245;52.832;13.816;2023-02-25T12:51:02;100057.22;;;2.10;77.44
17764;BME280;22245;52.832;13.816;2023-02-25T12:54:43;100053.28;;;2.17;77.66
17764;BME280;22245;52.832;13.816;2023-02-25T12:58:22;100069.06;;;2.32;77.51
17764;BME280;22245;52.832;13.816;2023-02-25T13:02:11;100071.66;;;2.46;76.77
17764;BME280;22245;52.832;13.816;2023-02-25T13:05:54;100074.28;;;2.46;76.05
17764;BME280;22245;52.832;13.816;2023-02-25T13:09:32;100094.84;;;2.40;74.79
17764;BME280;22245;52.832;13.816;2023-02-25T13:13:09;100092.53;;;2.35;75.79
17764;BME280;22245;52.832;13.816;2023-02-25T13:16:45;100094.09;;;2.38;77.04
17764;BME280;22245;52.832;13.816;2023-02-25T13:20:25;100111.19;;;2.30;77.79
17764;BME280;22245;52.832;13.816;2023-02-25T13:24:03;100096.16;;;2.33;77.25
17764;BME280;22245;52.832;13.816;2023-02-25T13:27:47;100117.66;;;2.25;77.32
17764;BME280;22245;52.832;13.816;2023-02-25T13:31:17;100131.16;;;2.19;77.97
17764;BME280;22245;52.832;13.816;2023-02-25T13:34:45;100130.88;;;2.09;79.98
17764;BME280;22245;52.832;13.816;2023-02-25T13:38:25;100135.47;;;2.20;79.70
17764;BME280;22245;52.832;13.816;2023-02-25T13:42:03;100136.22;;;2.22;79.66
17764;BME280;22245;52.832;13.816;2023-02-25T13:45:55;100152.56;;;2.27;79.28
17764;BME280;22245;52.832;13.816;2023-02-25T13:53:25;100157.28;;;2.36;76.73
17764;BME280;22245;52.832;13.816;2023-02-25T13:57:10;100172.75;;;2.26;76.09
17764;BME280;22245;52.832;13.816;2023-02-25T14:00:52;100173.13;;;2.20;77.39
17764;BME280;22245;52.832;13.816;2023-02-25T14:05:01;100178.38;;;2.20;75.73
17764;BME280;22245;52.832;13.816;2023-02-25T14:08:36;100184.81;;;2.14;76.52
17764;BME280;22245;52.832;13.816;2023-02-25T14:12:13;100200.97;;;2.23;76.99
17764;BME280;22245;52.832;13.816;2023-02-25T14:15:51;100191.63;;;2.33;77.83
17764;BME280;22245;52.832;13.816;2023-02-25T14:19:30;100199.34;;;2.36;77.90
17764;BME280;22245;52.832;13.816;2023-02-25T14:22:59;100200.34;;;2.34;78.40
17764;BME280;22245;52.832;13.816;2023-02-25T14:26:33;100211.41;;;2.24;78.91
17764;BME280;22245;52.832;13.816;2023-02-25T14:30:12;100219.19;;;2.26;79.78
17764;BME280;22245;52.832;13.816;2023-02-25T14:37:30;100235.31;;;2.20;78.72
17764;BME280;22245;52.832;13.816;2023-02-25T14:41:05;100250.81;;;2.24;78.56
17764;BME280;22245;52.832;13.816;2023-02-25T14:44:35;100248.28;;;2.23;78.94
17764;BME280;22245;52.832;13.816;2023-02-25T14:48:04;100254.16;;;2.12;79.42
17764;BME280;22245;52.832;13.816;2023-02-25T14:55:32;100264.00;;;2.08;79.82
17764;BME280;22245;52.832;13.816;2023-02-25T14:59:17;100260.47;;;1.93;80.78
17764;BME280;22245;52.832;13.816;2023-02-25T15:02:56;100272.41;;;1.99;80.10
17764;BME280;22245;52.832;13.816;2023-02-25T15:06:43;100299.09;;;1.91;79.84
17764;BME280;22245;52.832;13.816;2023-02-25T15:10:18;100283.16;;;1.94;80.16
17764;BME280;22245;52.832;13.816;2023-02-25T15:14:06;100293.44;;;1.99;80.40
17764;BME280;22245;52.832;13.816;2023-02-25T15:21:46;100310.19;;;1.80;80.50
17764;BME280;22245;52.832;13.816;2023-02-25T15:25:38;100314.50;;;1.81;79.83
17764;BME280;22245;52.832;13.816;2023-02-25T15:29:00;100311.31;;;1.76;79.35
17764;BME280;22245;52.832;13.816;2023-02-25T15:32:23;100324.53;;;1.75;78.41
17764;BME280;22245;52.832;13.816;2023-02-25T15:35:54;100321.81;;;1.76;78.83
17764;BME280;22245;52.832;13.816;2023-02-25T15:39:46;100328.91;;;1.74;78.76
17764;BME280;22245;52.832;13.816;2023-02-25T15:43:40;100334.75;;;1.79;78.49
17764;BME280;22245;52.832;13.816;2023-02-25T15:47:25;100341.13;;;1.75;79.19
17764;BME280;22245;52.832;13.816;2023-02-25T15:50:51;100348.06;;;1.76;79.35
17764;BME280;22245;52.832;13.816;2023-02-25T15:54:46;100370.94;;;1.90;78.68
17764;BME280;22245;52.832;13.816;2023-02-25T16:02:37;100374.47;;;1.73;78.24
17764;BME280;22245;52.832;13.816;2023-02-25T16:06:03;100384.56;;;1.65;78.03
17764;BME280;22245;52.832;13.816;2023-02-25T16:09:26;100392.50;;;1.63;78.41
17764;BME280;22245;52.832;13.816;2023-02-25T16:12:54;100396.91;;;1.63;78.62
17764;BME280;22245;52.832;13.816;2023-02-25T16:16:17;100398.22;;;1.71;78.41
17764;BME280;22245;52.832;13.816;2023-02-25T16:19:41;100411.41;;;1.70;77.92
17764;BME280;22245;52.832;13.816;2023-02-25T16:23:08;100416.72;;;1.68;77.63
17764;BME280;22245;52.832;13.816;2023-02-25T16:26:41;100430.88;;;1.66;77.95
17764;BME280;22245;52.832;13.816;2023-02-25T16:30:10;100433.84;;;1.59;78.12
17764;BME280;22245;52.832;13.816;2023-02-25T16:33:40;100436.91;;;1.68;78.63
17764;BME280;22245;52.832;13.816;2023-02-25T16:37:11;100440.66;;;1.80;78.41
17764;BME280;22245;52.832;13.816;2023-02-25T16:40:36;100455.47;;;1.81;78.98
17764;BME280;22245;52.832;13.816;2023-02-25T16:43:59;100466.31;;;1.75;78.86
17764;BME280;22245;52.832;13.816;2023-02-25T16:47:26;100467.75;;;1.80;79.27
17764;BME280;22245;52.832;13.816;2023-02-25T16:50:49;100481.19;;;1.74;79.79
17764;BME280;22245;52.832;13.816;2023-02-25T16:54:14;100481.84;;;1.62;80.38
17764;BME280;22245;52.832;13.816;2023-02-25T16:57:37;100492.34;;;1.62;80.71
17764;BME280;22245;52.832;13.816;2023-02-25T17:01:00;100496.75;;;1.61;80.73
17764;BME280;22245;52.832;13.816;2023-02-25T17:04:28;100508.44;;;1.55;81.06
17764;BME280;22245;52.832;13.816;2023-02-25T17:07:53;100508.25;;;1.58;81.13
17764;BME280;22245;52.832;13.816;2023-02-25T17:11:17;100515.97;;;1.44;81.46
17764;BME280;22245;52.832;13.816;2023-02-25T17:14:42;100521.63;;;1.54;81.29
17764;BME280;22245;52.832;13.816;2023-02-25T17:18:08;100526.47;;;1.44;80.66
17764;BME280;22245;52.832;13.816;2023-02-25T17:21:33;100532.44;;;1.48;81.09
17764;BME280;22245;52.832;13.816;2023-02-25T17:24:57;100544.78;;;1.46;81.28
17764;BME280;22245;52.832;13.816;2023-02-25T17:28:21;100547.63;;;1.41;80.80
17764;BME280;22245;52.832;13.816;2023-02-25T17:31:46;100554.72;;;1.39;80.70
17764;BME280;22245;52.832;13.816;2023-02-25T17:35:11;100553.44;;;1.48;80.82
17764;BME280;22245;52.832;13.816;2023-02-25T17:38:34;100565.63;;;1.49;80.02
17764;BME280;22245;52.832;13.816;2023-02-25T17:41:58;100571.03;;;1.46;79.06
17764;BME280;22245;52.832;13.816;2023-02-25T17:45:40;100568.38;;;1.28;80.42
17764;BME280;22245;52.832;13.816;2023-02-25T17:49:04;100570.16;;;1.27;80.66
17764;BME280;22245;52.832;13.816;2023-02-25T17:52:35;100576.34;;;1.26;79.86
17764;BME280;22245;52.832;13.816;2023-02-25T17:56:07;100577.78;;;1.32;79.26
17764;BME280;22245;52.832;13.816;2023-02-25T17:59:33;100593.31;;;1.37;79.34
17764;BME280;22245;52.832;13.816;2023-02-25T18:03:15;100584.22;;;1.44;79.03
17764;BME280;22245;52.832;13.816;2023-02-25T18:06:40;100597.34;;;1.44;78.28
17764;BME280;22245;52.832;13.816;2023-02-25T18:10:06;100595.00;;;1.38;78.84
17764;BME280;22245;52.832;13.816;2023-02-25T18:13:48;100589.91;;;1.35;79.31
17764;BME280;22245;52.832;13.816;2023-02-25T18:17:13;100586.38;;;1.36;79.91
17764;BME280;22245;52.832;13.816;2023-02-25T18:20:40;100594.94;;;1.39;79.84
17764;BME280;22245;52.832;13.816;2023-02-25T18:24:04;100598.97;;;1.47;79.44
17764;BME280;22245;52.832;13.816;2023-02-25T18:27:28;100612.59;;;1.36;80.21
17764;BME280;22245;52.832;13.816;2023-02-25T18:30:53;100620.47;;;1.36;79.85
17764;BME280;22245;52.832;13.816;2023-02-25T18:34:15;100620.84;;;1.28;80.77
17764;BME280;22245;52.832;13.816;2023-02-25T18:37:37;100628.19;;;1.21;81.18
17764;BME280;22245;52.832;13.816;2023-02-25T18:40:59;100628.19;;;1.21;81.30
17764;BME280;22245;52.832;13.816;2023-02-25T18:44:22;100641.50;;;1.17;82.40
17764;BME280;22245;52.832;13.816;2023-02-25T18:47:46;100644.63;;;1.06;82.60
17764;BME280;22245;52.832;13.816;2023-02-25T18:51:11;100658.03;;;0.99;83.47